sensor_id;sensor_type;location;lat;lon;timestamp;P1;durP1;ratioP1;P2;durP2;ratioP2
18340;SDS011;9296;48.084;16.352;2023-08-20T00:01:08;25.73;;;23.05;;
18340;SDS011;9296;48.084;16.352;2023-08-20T00:03:36;24.80;;;22.25;;
18340;SDS011;9296;48.084;16.352;2023-08-20T00:06:06;26.45;;;22.73;;
18340;SDS011;9296;48.084;16.352;2023-08-20T00:08:33;26.15;;;22.58;;
18340;SDS011;9296;48.084;16.352;2023-08-20T00:11:03;25.08;;;22.40;;
18340;SDS011;9296;48.084;16.352;2023-08-20T00:13:30;30.92;;;23.60;;
18340;SDS011;9296;48.084;16.352;2023-08-20T00:15:58;26.45;;;23.38;;
18340;SDS011;9296;48.084;16.352;2023-08-20T00:18:27;27.20;;;23.88;;
18340;SDS011;9296;48.084;16.352;2023-08-20T00:20:54;25.55;;;22.67;;
18340;SDS011;9296;48.084;16.352;2023-08-20T00:23:22;26.48;;;23.63;;
18340;SDS011;9296;48.084;16.352;2023-08-20T00:25:56;26.25;;;23.15;;
18340;SDS011;9296;48.084;16.352;2023-08-20T00:28:39;25.10;;;22.45;;
18340;SDS011;9296;48.084;16.352;2023-08-20T00:31:09;26.25;;;23.33;;
18340;SDS011;9296;48.084;16.352;2023-08-20T00:33:36;25.33;;;22.63;;
18340;SDS011;9296;48.084;16.352;2023-08-20T00:36:04;25.52;;;22.83;;
18340;SDS011;9296;48.084;16.352;2023-08-20T00:38:43;26.50;;;23.30;;
18340;SDS011;9296;48.084;16.352;2023-08-20T00:41:10;28.00;;;24.67;;
18340;SDS011;9296;48.084;16.352;2023-08-20T00:43:39;25.70;;;23.05;;
18340;SDS011;9296;48.084;16.352;2023-08-20T00:46:06;25.85;;;23.25;;
18340;SDS011;9296;48.084;16.352;2023-08-20T00:48:33;26.08;;;22.95;;
18340;SDS011;9296;48.084;16.352;2023-08-20T00:51:01;26.88;;;23.60;;
18340;SDS011;9296;48.084;16.352;2023-08-20T00:53:28;25.70;;;22.92;;
18340;SDS011;9296;48.084;16.352;2023-08-20T00:55:55;26.60;;;23.75;;
18340;SDS011;9296;48.084;16.352;2023-08-20T00:58:23;26.77;;;23.33;;
18340;SDS011;9296;48.084;16.352;2023-08-20T01:00:54;26.17;;;23.35;;
18340;SDS011;9296;48.084;16.352;2023-08-20T01:03:21;25.35;;;22.60;;
18340;SDS011;9296;48.084;16.352;2023-08-20T01:05:49;25.92;;;23.13;;
18340;SDS011;9296;48.084;16.352;2023-08-20T01:08:21;26.63;;;22.52;;
18340;SDS011;9296;48.084;16.352;2023-08-20T01:10:53;25.08;;;22.38;;
18340;SDS011;9296;48.084;16.352;2023-08-20T01:13:41;27.52;;;22.15;;
18340;SDS011;9296;48.084;16.352;2023-08-20T01:16:10;25.52;;;22.92;;
18340;SDS011;9296;48.084;16.352;2023-08-20T01:18:37;25.15;;;22.40;;
18340;SDS011;9296;48.084;16.352;2023-08-20T01:21:06;26.33;;;23.50;;
18340;SDS011;9296;48.084;16.352;2023-08-20T01:23:42;25.52;;;22.92;;
18340;SDS011;9296;48.084;16.352;2023-08-20T01:26:17;24.98;;;22.35;;
18340;SDS011;9296;48.084;16.352;2023-08-20T01:28:48;25.15;;;22.55;;
18340;SDS011;9296;48.084;16.352;2023-08-20T01:31:16;25.85;;;23.15;;
18340;SDS011;9296;48.084;16.352;2023-08-20T01:33:44;25.02;;;22.42;;
18340;SDS011;9296;48.084;16.352;2023-08-20T01:36:11;25.90;;;23.20;;
18340;SDS011;9296;48.084;16.352;2023-08-20T01:38:39;25.42;;;21.88;;
18340;SDS011;9296;48.084;16.352;2023-08-20T01:41:06;27.30;;;22.10;;
18340;SDS011;9296;48.084;16.352;2023-08-20T01:46:38;27.95;;;22.98;;
18340;SDS011;9296;48.084;16.352;2023-08-20T01:49:05;26.50;;;22.65;;
18340;SDS011;9296;48.084;16.352;2023-08-20T01:51:32;26.60;;;22.70;;
18340;SDS011;9296;48.084;16.352;2023-08-20T01:54:01;24.98;;;22.27;;
18340;SDS011;9296;48.084;16.352;2023-08-20T01:56:29;31.55;;;23.52;;
18340;SDS011;9296;48.084;16.352;2023-08-20T01:58:57;25.98;;;23.23;;
18340;SDS011;9296;48.084;16.352;2023-08-20T02:01:25;26.52;;;23.70;;
18340;SDS011;9296;48.084;16.352;2023-08-20T02:03:53;26.17;;;23.38;;
18340;SDS011;9296;48.084;16.352;2023-08-20T02:06:20;27.52;;;24.52;;
18340;SDS011;9296;48.084;16.352;2023-08-20T02:08:47;28.95;;;24.17;;
18340;SDS011;9296;48.084;16.352;2023-08-20T02:14:18;27.73;;;24.55;;
18340;SDS011;9296;48.084;16.352;2023-08-20T02:16:45;31.92;;;24.05;;
18340;SDS011;9296;48.084;16.352;2023-08-20T02:19:14;28.05;;;24.58;;
18340;SDS011;9296;48.084;16.352;2023-08-20T02:21:42;26.23;;;23.50;;
18340;SDS011;9296;48.084;16.352;2023-08-20T02:24:09;27.42;;;24.45;;
18340;SDS011;9296;48.084;16.352;2023-08-20T02:32:43;28.40;;;24.92;;
18340;SDS011;9296;48.084;16.352;2023-08-20T02:35:12;26.92;;;24.02;;
18340;SDS011;9296;48.084;16.352;2023-08-20T02:37:42;27.05;;;24.13;;
18340;SDS011;9296;48.084;16.352;2023-08-20T02:40:10;27.42;;;24.52;;
18340;SDS011;9296;48.084;16.352;2023-08-20T02:42:49;27.50;;;24.60;;
18340;SDS011;9296;48.084;16.352;2023-08-20T02:45:16;27.95;;;24.67;;
18340;SDS011;9296;48.084;16.352;2023-08-20T02:47:43;30.35;;;23.92;;
18340;SDS011;9296;48.084;16.352;2023-08-20T02:50:12;26.42;;;23.65;;
18340;SDS011;9296;48.084;16.352;2023-08-20T02:52:40;30.00;;;24.67;;
18340;SDS011;9296;48.084;16.352;2023-08-20T02:55:10;27.27;;;24.17;;
18340;SDS011;9296;48.084;16.352;2023-08-20T03:00:43;30.85;;;24.25;;
18340;SDS011;9296;48.084;16.352;2023-08-20T03:03:13;26.95;;;23.98;;
18340;SDS011;9296;48.084;16.352;2023-08-20T03:05:41;25.23;;;22.58;;
18340;SDS011;9296;48.084;16.352;2023-08-20T03:08:08;26.73;;;23.55;;
18340;SDS011;9296;48.084;16.352;2023-08-20T03:10:36;25.80;;;23.02;;
18340;SDS011;9296;48.084;16.352;2023-08-20T03:16:07;27.23;;;23.02;;
18340;SDS011;9296;48.084;16.352;2023-08-20T03:18:35;27.55;;;24.02;;
18340;SDS011;9296;48.084;16.352;2023-08-20T03:21:03;26.20;;;23.20;;
18340;SDS011;9296;48.084;16.352;2023-08-20T03:23:30;26.38;;;23.58;;
18340;SDS011;9296;48.084;16.352;2023-08-20T03:25:58;27.00;;;22.65;;
18340;SDS011;9296;48.084;16.352;2023-08-20T03:28:25;30.02;;;23.70;;
18340;SDS011;9296;48.084;16.352;2023-08-20T03:30:52;26.08;;;23.30;;
18340;SDS011;9296;48.084;16.352;2023-08-20T03:33:19;25.33;;;22.63;;
18340;SDS011;9296;48.084;16.352;2023-08-20T03:38:18;28.85;;;24.30;;
18340;SDS011;9296;48.084;16.352;2023-08-20T03:46:26;27.17;;;23.80;;
18340;SDS011;9296;48.084;16.352;2023-08-20T03:48:53;28.33;;;23.50;;
18340;SDS011;9296;48.084;16.352;2023-08-20T03:51:21;28.48;;;23.20;;
18340;SDS011;9296;48.084;16.352;2023-08-20T03:53:49;26.75;;;22.45;;
18340;SDS011;9296;48.084;16.352;2023-08-20T03:56:25;28.77;;;22.85;;
18340;SDS011;9296;48.084;16.352;2023-08-20T04:01:56;25.33;;;22.63;;
18340;SDS011;9296;48.084;16.352;2023-08-20T04:04:23;26.42;;;22.92;;
18340;SDS011;9296;48.084;16.352;2023-08-20T04:06:50;26.90;;;23.77;;
18340;SDS011;9296;48.084;16.352;2023-08-20T04:09:19;27.13;;;23.15;;
18340;SDS011;9296;48.084;16.352;2023-08-20T04:17:54;27.10;;;24.17;;
18340;SDS011;9296;48.084;16.352;2023-08-20T04:20:21;27.30;;;24.38;;
18340;SDS011;9296;48.084;16.352;2023-08-20T04:22:49;29.40;;;23.90;;
18340;SDS011;9296;48.084;16.352;2023-08-20T04:25:18;26.27;;;23.50;;
18340;SDS011;9296;48.084;16.352;2023-08-20T04:33:45;30.90;;;23.10;;
18340;SDS011;9296;48.084;16.352;2023-08-20T04:36:12;26.75;;;22.90;;
18340;SDS011;9296;48.084;16.352;2023-08-20T04:38:39;26.13;;;23.33;;
18340;SDS011;9296;48.084;16.352;2023-08-20T04:41:08;25.40;;;22.67;;
18340;SDS011;9296;48.084;16.352;2023-08-20T04:43:35;25.83;;;23.02;;
18340;SDS011;9296;48.084;16.352;2023-08-20T04:46:02;27.08;;;22.92;;
18340;SDS011;9296;48.084;16.352;2023-08-20T04:48:30;24.45;;;21.85;;
18340;SDS011;9296;48.084;16.352;2023-08-20T04:50:57;26.40;;;22.23;;
18340;SDS011;9296;48.084;16.352;2023-08-20T04:53:25;26.20;;;23.40;;
18340;SDS011;9296;48.084;16.352;2023-08-20T04:55:52;24.98;;;22.27;;
18340;SDS011;9296;48.084;16.352;2023-08-20T04:58:21;26.85;;;22.77;;
18340;SDS011;9296;48.084;16.352;2023-08-20T05:00:48;25.25;;;21.95;;
18340;SDS011;9296;48.084;16.352;2023-08-20T05:03:15;26.73;;;23.85;;
18340;SDS011;9296;48.084;16.352;2023-08-20T05:05:47;26.00;;;23.30;;
18340;SDS011;9296;48.084;16.352;2023-08-20T05:08:14;24.27;;;21.73;;
18340;SDS011;9296;48.084;16.352;2023-08-20T05:10:42;27.15;;;22.52;;
18340;SDS011;9296;48.084;16.352;2023-08-20T05:16:14;30.10;;;24.23;;
18340;SDS011;9296;48.084;16.352;2023-08-20T05:18:41;31.50;;;24.08;;
18340;SDS011;9296;48.084;16.352;2023-08-20T05:21:08;27.90;;;23.50;;
18340;SDS011;9296;48.084;16.352;2023-08-20T05:23:38;24.90;;;22.38;;
18340;SDS011;9296;48.084;16.352;2023-08-20T05:26:06;25.83;;;23.13;;
18340;SDS011;9296;48.084;16.352;2023-08-20T05:28:33;24.83;;;22.00;;
18340;SDS011;9296;48.084;16.352;2023-08-20T05:31:00;23.80;;;21.20;;
18340;SDS011;9296;48.084;16.352;2023-08-20T05:33:29;23.60;;;21.17;;
18340;SDS011;9296;48.084;16.352;2023-08-20T05:35:57;25.50;;;22.02;;
18340;SDS011;9296;48.084;16.352;2023-08-20T05:38:25;23.33;;;20.85;;
18340;SDS011;9296;48.084;16.352;2023-08-20T05:40:52;23.73;;;20.95;;
18340;SDS011;9296;48.084;16.352;2023-08-20T05:46:22;24.75;;;21.95;;
18340;SDS011;9296;48.084;16.352;2023-08-20T05:48:51;24.67;;;22.17;;
18340;SDS011;9296;48.084;16.352;2023-08-20T05:51:18;24.75;;;22.25;;
18340;SDS011;9296;48.084;16.352;2023-08-20T05:53:45;24.83;;;22.15;;
18340;SDS011;9296;48.084;16.352;2023-08-20T05:56:12;24.42;;;20.92;;
18340;SDS011;9296;48.084;16.352;2023-08-20T05:58:58;22.13;;;19.95;;
18340;SDS011;9296;48.084;16.352;2023-08-20T06:01:25;23.40;;;20.85;;
18340;SDS011;9296;48.084;16.352;2023-08-20T06:03:53;22.20;;;19.63;;
18340;SDS011;9296;48.084;16.352;2023-08-20T06:06:21;21.95;;;19.58;;
18340;SDS011;9296;48.084;16.352;2023-08-20T06:08:48;22.23;;;19.92;;
18340;SDS011;9296;48.084;16.352;2023-08-20T06:11:15;22.23;;;18.42;;
18340;SDS011;9296;48.084;16.352;2023-08-20T06:13:42;20.10;;;17.95;;
18340;SDS011;9296;48.084;16.352;2023-08-20T06:16:09;20.85;;;18.67;;
18340;SDS011;9296;48.084;16.352;2023-08-20T06:18:36;19.30;;;17.40;;
18340;SDS011;9296;48.084;16.352;2023-08-20T06:21:05;19.88;;;17.70;;
18340;SDS011;9296;48.084;16.352;2023-08-20T06:23:32;20.58;;;16.80;;
18340;SDS011;9296;48.084;16.352;2023-08-20T06:25:59;18.77;;;16.88;;
18340;SDS011;9296;48.084;16.352;2023-08-20T06:28:26;19.27;;;17.27;;
18340;SDS011;9296;48.084;16.352;2023-08-20T06:30:54;18.15;;;16.10;;
18340;SDS011;9296;48.084;16.352;2023-08-20T06:33:21;17.85;;;16.10;;
18340;SDS011;9296;48.084;16.352;2023-08-20T06:35:48;18.00;;;16.05;;
18340;SDS011;9296;48.084;16.352;2023-08-20T06:38:17;17.90;;;16.02;;
18340;SDS011;9296;48.084;16.352;2023-08-20T06:40:44;18.00;;;16.10;;
18340;SDS011;9296;48.084;16.352;2023-08-20T06:43:11;19.05;;;16.95;;
18340;SDS011;9296;48.084;16.352;2023-08-20T06:45:39;20.00;;;16.90;;
18340;SDS011;9296;48.084;16.352;2023-08-20T06:48:06;18.38;;;16.30;;
18340;SDS011;9296;48.084;16.352;2023-08-20T06:50:33;18.75;;;16.80;;
18340;SDS011;9296;48.084;16.352;2023-08-20T06:53:00;18.55;;;16.63;;
18340;SDS011;9296;48.084;16.352;2023-08-20T06:55:29;17.58;;;15.95;;
18340;SDS011;9296;48.084;16.352;2023-08-20T06:57:56;17.98;;;16.08;;
18340;SDS011;9296;48.084;16.352;2023-08-20T07:00:23;17.58;;;15.77;;
18340;SDS011;9296;48.084;16.352;2023-08-20T07:02:50;19.02;;;16.52;;
18340;SDS011;9296;48.084;16.352;2023-08-20T07:05:18;17.52;;;15.80;;
18340;SDS011;9296;48.084;16.352;2023-08-20T07:07:45;18.52;;;16.58;;
18340;SDS011;9296;48.084;16.352;2023-08-20T07:10:13;19.08;;;16.83;;
18340;SDS011;9296;48.084;16.352;2023-08-20T07:12:41;17.92;;;16.10;;
18340;SDS011;9296;48.084;16.352;2023-08-20T07:15:09;17.70;;;15.90;;
18340;SDS011;9296;48.084;16.352;2023-08-20T07:17:36;17.42;;;15.70;;
18340;SDS011;9296;48.084;16.352;2023-08-20T07:20:04;17.77;;;16.08;;
18340;SDS011;9296;48.084;16.352;2023-08-20T07:22:31;16.98;;;15.27;;
18340;SDS011;9296;48.084;16.352;2023-08-20T07:24:58;16.90;;;15.20;;
18340;SDS011;9296;48.084;16.352;2023-08-20T07:27:26;16.80;;;15.18;;
18340;SDS011;9296;48.084;16.352;2023-08-20T07:29:55;18.25;;;16.17;;
18340;SDS011;9296;48.084;16.352;2023-08-20T07:32:22;17.55;;;15.90;;
18340;SDS011;9296;48.084;16.352;2023-08-20T07:34:49;17.60;;;15.90;;
18340;SDS011;9296;48.084;16.352;2023-08-20T07:37:16;17.83;;;16.00;;
18340;SDS011;9296;48.084;16.352;2023-08-20T07:39:43;17.95;;;16.25;;
18340;SDS011;9296;48.084;16.352;2023-08-20T07:42:10;16.92;;;15.43;;
18340;SDS011;9296;48.084;16.352;2023-08-20T07:44:38;16.85;;;15.35;;
18340;SDS011;9296;48.084;16.352;2023-08-20T07:47:06;17.25;;;15.73;;
18340;SDS011;9296;48.084;16.352;2023-08-20T07:49:33;16.13;;;14.50;;
18340;SDS011;9296;48.084;16.352;2023-08-20T07:52:01;16.08;;;14.57;;
18340;SDS011;9296;48.084;16.352;2023-08-20T07:54:28;16.15;;;14.55;;
18340;SDS011;9296;48.084;16.352;2023-08-20T07:56:55;16.73;;;15.15;;
18340;SDS011;9296;48.084;16.352;2023-08-20T07:59:22;17.10;;;15.40;;
18340;SDS011;9296;48.084;16.352;2023-08-20T08:01:49;15.32;;;13.93;;
18340;SDS011;9296;48.084;16.352;2023-08-20T08:04:18;15.68;;;14.27;;
18340;SDS011;9296;48.084;16.352;2023-08-20T08:06:45;15.23;;;13.90;;
18340;SDS011;9296;48.084;16.352;2023-08-20T08:09:18;14.52;;;13.13;;
18340;SDS011;9296;48.084;16.352;2023-08-20T08:11:46;15.45;;;13.90;;
18340;SDS011;9296;48.084;16.352;2023-08-20T08:14:13;15.57;;;14.10;;
18340;SDS011;9296;48.084;16.352;2023-08-20T08:16:40;14.55;;;13.15;;
18340;SDS011;9296;48.084;16.352;2023-08-20T08:19:07;14.52;;;13.32;;
18340;SDS011;9296;48.084;16.352;2023-08-20T08:21:36;14.48;;;13.18;;
18340;SDS011;9296;48.084;16.352;2023-08-20T08:24:04;14.30;;;12.85;;
18340;SDS011;9296;48.084;16.352;2023-08-20T08:26:32;14.18;;;12.98;;
18340;SDS011;9296;48.084;16.352;2023-08-20T08:31:47;13.15;;;11.98;;
18340;SDS011;9296;48.084;16.352;2023-08-20T08:34:14;13.75;;;12.60;;
18340;SDS011;9296;48.084;16.352;2023-08-20T08:36:43;13.77;;;12.65;;
18340;SDS011;9296;48.084;16.352;2023-08-20T08:39:10;13.90;;;12.80;;
18340;SDS011;9296;48.084;16.352;2023-08-20T08:41:38;13.80;;;12.45;;
18340;SDS011;9296;48.084;16.352;2023-08-20T08:47:09;13.23;;;12.15;;
18340;SDS011;9296;48.084;16.352;2023-08-20T08:49:36;12.82;;;11.73;;
18340;SDS011;9296;48.084;16.352;2023-08-20T08:52:05;13.07;;;11.88;;
18340;SDS011;9296;48.084;16.352;2023-08-20T08:54:33;13.60;;;12.25;;
18340;SDS011;9296;48.084;16.352;2023-08-20T08:57:00;13.00;;;11.80;;
18340;SDS011;9296;48.084;16.352;2023-08-20T08:59:46;12.98;;;11.90;;
18340;SDS011;9296;48.084;16.352;2023-08-20T09:02:13;12.73;;;11.55;;
18340;SDS011;9296;48.084;16.352;2023-08-20T09:04:40;12.98;;;11.88;;
18340;SDS011;9296;48.084;16.352;2023-08-20T09:07:12;12.75;;;11.75;;
18340;SDS011;9296;48.084;16.352;2023-08-20T09:09:41;12.30;;;11.40;;
18340;SDS011;9296;48.084;16.352;2023-08-20T09:12:12;12.80;;;11.70;;
18340;SDS011;9296;48.084;16.352;2023-08-20T09:14:40;11.90;;;10.90;;
18340;SDS011;9296;48.084;16.352;2023-08-20T09:17:10;12.73;;;11.40;;
18340;SDS011;9296;48.084;16.352;2023-08-20T09:19:38;12.27;;;11.23;;
18340;SDS011;9296;48.084;16.352;2023-08-20T09:22:05;12.57;;;11.48;;
18340;SDS011;9296;48.084;16.352;2023-08-20T09:24:38;12.07;;;10.90;;
18340;SDS011;9296;48.084;16.352;2023-08-20T09:27:07;11.85;;;10.85;;
18340;SDS011;9296;48.084;16.352;2023-08-20T09:29:43;12.07;;;10.52;;
18340;SDS011;9296;48.084;16.352;2023-08-20T09:32:13;11.63;;;10.65;;
18340;SDS011;9296;48.084;16.352;2023-08-20T09:34:40;11.90;;;11.00;;
18340;SDS011;9296;48.084;16.352;2023-08-20T09:37:08;11.27;;;10.35;;
18340;SDS011;9296;48.084;16.352;2023-08-20T09:39:37;12.25;;;10.95;;
18340;SDS011;9296;48.084;16.352;2023-08-20T09:42:05;12.35;;;10.82;;
18340;SDS011;9296;48.084;16.352;2023-08-20T09:44:33;12.30;;;11.02;;
18340;SDS011;9296;48.084;16.352;2023-08-20T09:47:01;11.88;;;10.77;;
18340;SDS011;9296;48.084;16.352;2023-08-20T09:49:30;12.27;;;11.05;;
18340;SDS011;9296;48.084;16.352;2023-08-20T09:51:58;11.32;;;10.27;;
18340;SDS011;9296;48.084;16.352;2023-08-20T09:54:28;12.05;;;10.95;;
18340;SDS011;9296;48.084;16.352;2023-08-20T09:57:01;11.85;;;10.82;;
18340;SDS011;9296;48.084;16.352;2023-08-20T09:59:28;12.15;;;10.98;;
18340;SDS011;9296;48.084;16.352;2023-08-20T10:01:56;11.18;;;10.20;;
18340;SDS011;9296;48.084;16.352;2023-08-20T10:04:23;11.90;;;10.80;;
18340;SDS011;9296;48.084;16.352;2023-08-20T10:06:50;10.80;;;10.00;;
18340;SDS011;9296;48.084;16.352;2023-08-20T10:09:19;14.70;;;10.38;;
18340;SDS011;9296;48.084;16.352;2023-08-20T10:11:47;12.50;;;10.30;;
18340;SDS011;9296;48.084;16.352;2023-08-20T10:14:16;10.73;;;9.68;;
18340;SDS011;9296;48.084;16.352;2023-08-20T10:16:43;11.80;;;10.60;;
18340;SDS011;9296;48.084;16.352;2023-08-20T10:19:10;10.88;;;9.93;;
18340;SDS011;9296;48.084;16.352;2023-08-20T10:21:42;11.23;;;10.23;;
18340;SDS011;9296;48.084;16.352;2023-08-20T10:24:10;11.65;;;10.65;;
18340;SDS011;9296;48.084;16.352;2023-08-20T10:26:44;11.40;;;10.32;;
18340;SDS011;9296;48.084;16.352;2023-08-20T10:31:59;11.30;;;10.30;;
18340;SDS011;9296;48.084;16.352;2023-08-20T10:34:31;12.10;;;10.85;;
18340;SDS011;9296;48.084;16.352;2023-08-20T10:37:00;11.77;;;9.98;;
18340;SDS011;9296;48.084;16.352;2023-08-20T10:39:28;11.98;;;10.38;;
18340;SDS011;9296;48.084;16.352;2023-08-20T10:42:07;11.50;;;10.38;;
18340;SDS011;9296;48.084;16.352;2023-08-20T10:47:18;10.10;;;8.95;;
18340;SDS011;9296;48.084;16.352;2023-08-20T10:49:45;10.32;;;8.60;;
18340;SDS011;9296;48.084;16.352;2023-08-20T10:52:17;9.50;;;8.60;;
18340;SDS011;9296;48.084;16.352;2023-08-20T10:54:45;9.27;;;8.48;;
18340;SDS011;9296;48.084;16.352;2023-08-20T10:57:12;9.40;;;8.65;;
18340;SDS011;9296;48.084;16.352;2023-08-20T10:59:39;9.45;;;8.65;;
18340;SDS011;9296;48.084;16.352;2023-08-20T11:02:09;9.95;;;8.95;;
18340;SDS011;9296;48.084;16.352;2023-08-20T11:04:41;10.55;;;9.45;;
18340;SDS011;9296;48.084;16.352;2023-08-20T11:07:09;10.75;;;9.85;;
18340;SDS011;9296;48.084;16.352;2023-08-20T11:09:37;11.00;;;9.93;;
18340;SDS011;9296;48.084;16.352;2023-08-20T11:12:05;10.05;;;9.23;;
18340;SDS011;9296;48.084;16.352;2023-08-20T11:14:32;10.80;;;9.73;;
18340;SDS011;9296;48.084;16.352;2023-08-20T11:16:59;10.68;;;9.75;;
18340;SDS011;9296;48.084;16.352;2023-08-20T11:19:27;10.13;;;9.32;;
18340;SDS011;9296;48.084;16.352;2023-08-20T11:21:56;8.60;;;7.90;;
18340;SDS011;9296;48.084;16.352;2023-08-20T11:24:23;9.70;;;8.90;;
18340;SDS011;9296;48.084;16.352;2023-08-20T11:26:55;9.38;;;7.97;;
18340;SDS011;9296;48.084;16.352;2023-08-20T11:32:26;9.88;;;9.02;;
18340;SDS011;9296;48.084;16.352;2023-08-20T11:34:53;9.88;;;8.90;;
18340;SDS011;9296;48.084;16.352;2023-08-20T11:37:21;9.77;;;8.98;;
18340;SDS011;9296;48.084;16.352;2023-08-20T11:39:49;10.05;;;9.23;;
18340;SDS011;9296;48.084;16.352;2023-08-20T11:42:16;9.98;;;9.07;;
18340;SDS011;9296;48.084;16.352;2023-08-20T11:47:46;9.82;;;8.95;;
18340;SDS011;9296;48.084;16.352;2023-08-20T11:50:14;10.48;;;9.35;;
18340;SDS011;9296;48.084;16.352;2023-08-20T11:52:42;9.48;;;8.50;;
18340;SDS011;9296;48.084;16.352;2023-08-20T11:55:09;9.48;;;8.52;;
18340;SDS011;9296;48.084;16.352;2023-08-20T11:57:37;9.88;;;8.85;;
18340;SDS011;9296;48.084;16.352;2023-08-20T12:03:08;14.30;;;8.30;;
18340;SDS011;9296;48.084;16.352;2023-08-20T12:05:36;9.10;;;8.20;;
18340;SDS011;9296;48.084;16.352;2023-08-20T12:08:04;9.02;;;8.20;;
18340;SDS011;9296;48.084;16.352;2023-08-20T12:10:32;8.80;;;7.90;;
18340;SDS011;9296;48.084;16.352;2023-08-20T12:13:12;8.85;;;7.78;;
18340;SDS011;9296;48.084;16.352;2023-08-20T12:15:39;8.07;;;7.28;;
18340;SDS011;9296;48.084;16.352;2023-08-20T12:18:06;7.93;;;7.22;;
18340;SDS011;9296;48.084;16.352;2023-08-20T12:20:35;8.15;;;7.32;;
18340;SDS011;9296;48.084;16.352;2023-08-20T12:23:03;8.55;;;7.85;;
18340;SDS011;9296;48.084;16.352;2023-08-20T12:25:32;9.05;;;8.25;;
18340;SDS011;9296;48.084;16.352;2023-08-20T12:31:22;8.38;;;7.57;;
18340;SDS011;9296;48.084;16.352;2023-08-20T12:33:49;8.70;;;7.80;;
18340;SDS011;9296;48.084;16.352;2023-08-20T12:36:17;8.60;;;7.82;;
18340;SDS011;9296;48.084;16.352;2023-08-20T12:38:44;9.35;;;7.32;;
18340;SDS011;9296;48.084;16.352;2023-08-20T12:41:12;7.32;;;6.80;;
18340;SDS011;9296;48.084;16.352;2023-08-20T12:43:40;7.50;;;6.90;;
18340;SDS011;9296;48.084;16.352;2023-08-20T12:46:07;8.38;;;7.07;;
18340;SDS011;9296;48.084;16.352;2023-08-20T12:48:34;8.38;;;5.78;;
18340;SDS011;9296;48.084;16.352;2023-08-20T12:51:01;8.10;;;5.80;;
18340;SDS011;9296;48.084;16.352;2023-08-20T12:53:29;6.40;;;5.80;;
18340;SDS011;9296;48.084;16.352;2023-08-20T12:55:56;7.63;;;6.07;;
18340;SDS011;9296;48.084;16.352;2023-08-20T12:58:24;10.18;;;6.35;;
18340;SDS011;9296;48.084;16.352;2023-08-20T13:00:52;6.40;;;5.80;;
18340;SDS011;9296;48.084;16.352;2023-08-20T13:03:19;7.10;;;6.40;;
18340;SDS011;9296;48.084;16.352;2023-08-20T13:05:47;7.00;;;6.40;;
18340;SDS011;9296;48.084;16.352;2023-08-20T13:08:14;7.13;;;6.15;;
18340;SDS011;9296;48.084;16.352;2023-08-20T13:10:43;6.82;;;6.30;;
18340;SDS011;9296;48.084;16.352;2023-08-20T13:13:16;7.10;;;6.40;;
18340;SDS011;9296;48.084;16.352;2023-08-20T13:15:47;7.10;;;6.40;;
18340;SDS011;9296;48.084;16.352;2023-08-20T13:18:14;12.38;;;6.45;;
18340;SDS011;9296;48.084;16.352;2023-08-20T13:20:41;11.63;;;6.10;;
18340;SDS011;9296;48.084;16.352;2023-08-20T13:23:09;7.20;;;6.50;;
18340;SDS011;9296;48.084;16.352;2023-08-20T13:25:36;7.30;;;6.05;;
18340;SDS011;9296;48.084;16.352;2023-08-20T13:28:03;6.95;;;5.95;;
18340;SDS011;9296;48.084;16.352;2023-08-20T13:33:35;7.45;;;5.57;;
18340;SDS011;9296;48.084;16.352;2023-08-20T13:36:02;6.00;;;5.50;;
18340;SDS011;9296;48.084;16.352;2023-08-20T13:38:30;6.07;;;5.15;;
18340;SDS011;9296;48.084;16.352;2023-08-20T13:40:57;5.78;;;5.15;;
18340;SDS011;9296;48.084;16.352;2023-08-20T13:46:27;5.63;;;5.10;;
18340;SDS011;9296;48.084;16.352;2023-08-20T13:48:56;6.90;;;5.35;;
18340;SDS011;9296;48.084;16.352;2023-08-20T13:51:23;5.50;;;5.00;;
18340;SDS011;9296;48.084;16.352;2023-08-20T13:53:50;6.57;;;5.70;;
18340;SDS011;9296;48.084;16.352;2023-08-20T13:56:18;5.78;;;5.20;;
18340;SDS011;9296;48.084;16.352;2023-08-20T14:04:53;6.63;;;5.25;;
18340;SDS011;9296;48.084;16.352;2023-08-20T14:07:20;6.38;;;5.63;;
18340;SDS011;9296;48.084;16.352;2023-08-20T14:09:48;6.20;;;5.40;;
18340;SDS011;9296;48.084;16.352;2023-08-20T14:12:15;6.95;;;5.68;;
18340;SDS011;9296;48.084;16.352;2023-08-20T14:14:42;6.18;;;5.57;;
18340;SDS011;9296;48.084;16.352;2023-08-20T14:17:09;6.97;;;5.50;;
18340;SDS011;9296;48.084;16.352;2023-08-20T14:19:37;6.35;;;5.75;;
18340;SDS011;9296;48.084;16.352;2023-08-20T14:22:05;6.20;;;5.35;;
18340;SDS011;9296;48.084;16.352;2023-08-20T14:24:32;6.53;;;5.50;;
18340;SDS011;9296;48.084;16.352;2023-08-20T14:27:00;8.85;;;6.10;;
18340;SDS011;9296;48.084;16.352;2023-08-20T14:29:27;6.30;;;5.75;;
18340;SDS011;9296;48.084;16.352;2023-08-20T14:31:54;7.70;;;5.75;;
18340;SDS011;9296;48.084;16.352;2023-08-20T14:34:22;6.28;;;5.78;;
18340;SDS011;9296;48.084;16.352;2023-08-20T14:36:51;7.35;;;6.45;;
18340;SDS011;9296;48.084;16.352;2023-08-20T14:39:19;7.20;;;6.60;;
18340;SDS011;9296;48.084;16.352;2023-08-20T14:41:47;7.32;;;6.72;;
18340;SDS011;9296;48.084;16.352;2023-08-20T14:44:14;7.25;;;6.45;;
18340;SDS011;9296;48.084;16.352;2023-08-20T14:46:41;6.50;;;5.90;;
18340;SDS011;9296;48.084;16.352;2023-08-20T14:49:08;7.18;;;6.25;;
18340;SDS011;9296;48.084;16.352;2023-08-20T14:51:35;6.93;;;6.05;;
18340;SDS011;9296;48.084;16.352;2023-08-20T14:54:03;7.20;;;6.30;;
18340;SDS011;9296;48.084;16.352;2023-08-20T14:56:31;6.60;;;6.05;;
18340;SDS011;9296;48.084;16.352;2023-08-20T14:58:58;7.00;;;6.32;;
18340;SDS011;9296;48.084;16.352;2023-08-20T15:01:26;6.78;;;6.18;;
18340;SDS011;9296;48.084;16.352;2023-08-20T15:03:53;6.90;;;6.20;;
18340;SDS011;9296;48.084;16.352;2023-08-20T15:06:20;6.45;;;5.85;;
18340;SDS011;9296;48.084;16.352;2023-08-20T15:08:49;6.18;;;5.57;;
18340;SDS011;9296;48.084;16.352;2023-08-20T15:11:16;6.43;;;5.82;;
18340;SDS011;9296;48.084;16.352;2023-08-20T15:13:54;6.43;;;5.82;;
18340;SDS011;9296;48.084;16.352;2023-08-20T15:16:21;6.45;;;5.55;;
18340;SDS011;9296;48.084;16.352;2023-08-20T15:18:48;7.90;;;5.70;;
18340;SDS011;9296;48.084;16.352;2023-08-20T15:21:16;6.57;;;5.50;;
18340;SDS011;9296;48.084;16.352;2023-08-20T15:23:43;7.30;;;5.70;;
18340;SDS011;9296;48.084;16.352;2023-08-20T15:26:10;8.57;;;6.10;;
18340;SDS011;9296;48.084;16.352;2023-08-20T15:34:45;5.35;;;4.80;;
18340;SDS011;9296;48.084;16.352;2023-08-20T15:37:13;5.15;;;4.28;;
18340;SDS011;9296;48.084;16.352;2023-08-20T15:39:41;5.28;;;4.18;;
18340;SDS011;9296;48.084;16.352;2023-08-20T15:42:09;4.68;;;4.28;;
18340;SDS011;9296;48.084;16.352;2023-08-20T15:44:36;4.53;;;4.00;;
18340;SDS011;9296;48.084;16.352;2023-08-20T15:47:03;5.55;;;4.60;;
18340;SDS011;9296;48.084;16.352;2023-08-20T15:49:30;6.07;;;4.60;;
18340;SDS011;9296;48.084;16.352;2023-08-20T15:51:59;5.40;;;4.80;;
18340;SDS011;9296;48.084;16.352;2023-08-20T15:54:28;5.28;;;4.78;;
18340;SDS011;9296;48.084;16.352;2023-08-20T15:56:55;9.25;;;5.47;;
18340;SDS011;9296;48.084;16.352;2023-08-20T15:59:41;6.63;;;4.97;;
18340;SDS011;9296;48.084;16.352;2023-08-20T16:02:24;9.52;;;5.10;;
18340;SDS011;9296;48.084;16.352;2023-08-20T16:04:51;7.57;;;5.50;;
18340;SDS011;9296;48.084;16.352;2023-08-20T16:07:20;8.45;;;5.20;;